Terminal Aerodrome Forecast
Issued by NWS Omaha/Valley, NE

Home | Current Version | Previous Version | Text Only | Print | Product List | Glossary On
Versions: 1 2 3 4 5 6 7 8 9 10 11 12 13 14 15 16 17 18 19 20 21 22 23 24 25 26 27 28 29 30 31 32 33 34 35 36 37
000
FTUS43 KOAX 191729
TAFOFK
TAF
KOFK 191729Z 1918/2018 20018G24KT P6SM SCT100
     FM192300 23012KT P6SM BKN120
     FM200000 22008KT P6SM BKN100
     FM200300 25007KT P6SM VCSH BKN080 PROB30 2004/2007 P6SM TSRA
      BKN040CB
     FM200800 30008KT P6SM SCT100 SCT250=

USA.gov is the U.S. government's official web portal to all federal, state and local government web resources and services.